Zim Panama — VSWW5 — position and weather

sailwx.info

Track history (hours):
 
Tides and Currents Weather Stations Pressure Air Temp Water Temp Dewpoint Dewpoint Depression Visibility Wind Speed Wind Dir Waves Ship Positions

Zim Panama

Last reported at 2015-May-01 10:29 UTC. Time now 2015-May-06 07:25 UTC.
Position S 34°46' E 138°29'.

Length 294.12 m; beam 32.2 m; draft 9.45 m.

Type: Ship (hazmat cat C). MMSI: 235474000.

Date/timePositionNaut miles runAvg speedWind from/ knotsBaromVisibWave heightAir tempDewpointWater temp
2015-May-01 10:29S 34°46' E 138°29'248 8.8
2015-Apr-30 06:12S 38°25' E 140°53'1014.9
2015-Apr-30 05:33S 38°28' E 141°06'1515.2
2015-Apr-30 04:33S 38°32' E 141°24'1515.3
2015-Apr-30 03:33S 38°36' E 141°43'1615.5
2015-Apr-30 02:33S 38°41' E 142°02'1515.4
2015-Apr-30 01:33S 38°45' E 142°21'1815.5
2015-Apr-30 00:24S 38°50' E 142°43'1816.2
2015-Apr-29 23:17S 38°55' E 143°05'125 2.4
2015-Apr-27 19:19S 39°10' E 145°45'1115.1
2015-Apr-27 18:33S 39°11' E 145°60'1615.6
2015-Apr-27 17:33S 39°12' E 146°20'1616.2
2015-Apr-27 16:33S 39°07' E 146°40'1616.2
2015-Apr-27 15:33S 39°02' E 146°60'1716.9
2015-Apr-27 14:33S 38°56' E 147°20'9116.9
2015-Apr-27 09:12S 38°16' E 149°04'4816.9
2015-Apr-27 06:20S 37°50' E 149°56'1418.2
2015-Apr-27 05:33S 37°39' E 150°07'1817.6
2015-Apr-27 04:32S 37°21' E 150°12'  
2015-Apr-23 12:33S 33°05' E 152°16'1212.1
2015-Apr-23 11:33S 32°55' E 152°24'1212.2
2015-Apr-23 10:33S 32°44' E 152°31'1512.9
2015-Apr-23 09:24S 32°31' E 152°38'23 0.6
2015-Apr-21 20:33S 32°09' E 152°45'  
Track history (hours):
 
Tides and Currents Weather Stations Pressure Air Temp Water Temp Dewpoint Dewpoint Depression Visibility Wind Speed Wind Dir Waves Ship Positions

Zim Panama

Last reported at 2015-May-01 10:29 UTC. Time now 2015-May-06 07:25 UTC.
Position S 34°46' E 138°29'.

Length 294.12 m; beam 32.2 m; draft 9.45 m.

Type: Ship (hazmat cat C). MMSI: 235474000.

Date/timePositionNaut miles runAvg speedWind from/ knotsBaromVisibWave heightAir tempDewpointWater temp
2015-May-01 10:29S 34°46' E 138°29'248 8.8
2015-Apr-30 06:12S 38°25' E 140°53'1014.9
2015-Apr-30 05:33S 38°28' E 141°06'1515.2
2015-Apr-30 04:33S 38°32' E 141°24'1515.3
2015-Apr-30 03:33S 38°36' E 141°43'1615.5
2015-Apr-30 02:33S 38°41' E 142°02'1515.4
2015-Apr-30 01:33S 38°45' E 142°21'1815.5
2015-Apr-30 00:24S 38°50' E 142°43'1816.2
2015-Apr-29 23:17S 38°55' E 143°05'125 2.4
2015-Apr-27 19:19S 39°10' E 145°45'1115.1
2015-Apr-27 18:33S 39°11' E 145°60'1615.6
2015-Apr-27 17:33S 39°12' E 146°20'1616.2
2015-Apr-27 16:33S 39°07' E 146°40'1616.2
2015-Apr-27 15:33S 39°02' E 146°60'1716.9
2015-Apr-27 14:33S 38°56' E 147°20'9116.9
2015-Apr-27 09:12S 38°16' E 149°04'4816.9
2015-Apr-27 06:20S 37°50' E 149°56'1418.2
2015-Apr-27 05:33S 37°39' E 150°07'1817.6
2015-Apr-27 04:32S 37°21' E 150°12'  
2015-Apr-23 12:33S 33°05' E 152°16'1212.1
2015-Apr-23 11:33S 32°55' E 152°24'1212.2
2015-Apr-23 10:33S 32°44' E 152°31'1512.9
2015-Apr-23 09:24S 32°31' E 152°38'23 0.6
2015-Apr-21 20:33S 32°09' E 152°45'  

Dump ship's entire track history